sensor_id;sensor_type;location;lat;lon;timestamp;pressure;altitude;pressure_sealevel;temperature;humidity
49072;BME280;74284;52.610;10.236;2024-02-14T00:00:26;101241.44;;;7.09;58.50
49072;BME280;74284;52.610;10.236;2024-02-14T00:02:51;101238.84;;;7.06;58.56
49072;BME280;74284;52.610;10.236;2024-02-14T00:05:17;101235.41;;;7.03;58.88
49072;BME280;74284;52.610;10.236;2024-02-14T00:07:43;101227.19;;;7.16;58.48
49072;BME280;74284;52.610;10.236;2024-02-14T00:10:09;101229.88;;;7.15;58.65
49072;BME280;74284;52.610;10.236;2024-02-14T00:12:35;101236.97;;;7.13;58.88
49072;BME280;74284;52.610;10.236;2024-02-14T00:15:01;101228.97;;;7.16;58.64
49072;BME280;74284;52.610;10.236;2024-02-14T00:17:29;101235.09;;;7.18;58.95
49072;BME280;74284;52.610;10.236;2024-02-14T00:19:54;101228.97;;;7.16;58.67
49072;BME280;74284;52.610;10.236;2024-02-14T00:22:19;101222.75;;;7.19;58.79
49072;BME280;74284;52.610;10.236;2024-02-14T00:24:44;101230.56;;;7.25;58.75
49072;BME280;74284;52.610;10.236;2024-02-14T00:27:10;101225.50;;;7.12;59.12
49072;BME280;74284;52.610;10.236;2024-02-14T00:29:35;101230.75;;;7.15;59.62
49072;BME280;74284;52.610;10.236;2024-02-14T00:32:00;101219.31;;;7.15;59.44
49072;BME280;74284;52.610;10.236;2024-02-14T00:34:27;101221.78;;;7.24;59.69
49072;BME280;74284;52.610;10.236;2024-02-14T00:36:52;101213.81;;;7.26;59.69
49072;BME280;74284;52.610;10.236;2024-02-14T00:39:17;101214.63;;;7.29;59.94
49072;BME280;74284;52.610;10.236;2024-02-14T00:41:42;101210.19;;;7.31;59.70
49072;BME280;74284;52.610;10.236;2024-02-14T00:44:08;101207.41;;;7.37;60.10
49072;BME280;74284;52.610;10.236;2024-02-14T00:46:33;101205.47;;;7.44;60.06
49072;BME280;74284;52.610;10.236;2024-02-14T00:48:58;101203.75;;;7.43;60.06
49072;BME280;74284;52.610;10.236;2024-02-14T00:51:24;101202.78;;;7.47;60.26
49072;BME280;74284;52.610;10.236;2024-02-14T00:53:51;101198.41;;;7.46;60.31
49072;BME280;74284;52.610;10.236;2024-02-14T00:56:16;101197.44;;;7.49;59.79
49072;BME280;74284;52.610;10.236;2024-02-14T00:58:42;101187.00;;;7.44;60.64
49072;BME280;74284;52.610;10.236;2024-02-14T01:01:07;101182.81;;;7.35;60.68
49072;BME280;74284;52.610;10.236;2024-02-14T01:03:33;101188.19;;;7.31;60.67
49072;BME280;74284;52.610;10.236;2024-02-14T01:05:58;101181.97;;;7.33;60.48
49072;BME280;74284;52.610;10.236;2024-02-14T01:08:23;101181.94;;;7.35;60.18
49072;BME280;74284;52.610;10.236;2024-02-14T01:10:49;101171.31;;;7.38;60.30
49072;BME280;74284;52.610;10.236;2024-02-14T01:13:17;101173.03;;;7.39;60.25
49072;BME280;74284;52.610;10.236;2024-02-14T01:15:42;101168.41;;;7.49;60.16
49072;BME280;74284;52.610;10.236;2024-02-14T01:18:08;101173.72;;;7.47;60.21
49072;BME280;74284;52.610;10.236;2024-02-14T01:20:33;101158.69;;;7.51;59.92
49072;BME280;74284;52.610;10.236;2024-02-14T01:22:58;101160.53;;;7.47;60.19
49072;BME280;74284;52.610;10.236;2024-02-14T01:25:25;101163.97;;;7.51;60.11
49072;BME280;74284;52.610;10.236;2024-02-14T01:27:51;101164.16;;;7.43;60.45
49072;BME280;74284;52.610;10.236;2024-02-14T01:30:18;101163.44;;;7.36;60.90
49072;BME280;74284;52.610;10.236;2024-02-14T01:32:44;101155.44;;;7.39;60.67
49072;BME280;74284;52.610;10.236;2024-02-14T01:35:09;101154.50;;;7.42;60.73
49072;BME280;74284;52.610;10.236;2024-02-14T01:37:35;101158.84;;;7.45;60.31
49072;BME280;74284;52.610;10.236;2024-02-14T01:40:00;101149.97;;;7.47;60.72
49072;BME280;74284;52.610;10.236;2024-02-14T01:42:25;101147.16;;;7.55;60.12
49072;BME280;74284;52.610;10.236;2024-02-14T01:44:52;101144.63;;;7.50;60.25
49072;BME280;74284;52.610;10.236;2024-02-14T01:47:20;101146.31;;;7.53;60.35
49072;BME280;74284;52.610;10.236;2024-02-14T01:49:45;101144.59;;;7.52;60.68
49072;BME280;74284;52.610;10.236;2024-02-14T01:52:12;101142.56;;;7.63;59.97
49072;BME280;74284;52.610;10.236;2024-02-14T01:54:38;101140.84;;;7.60;60.11
49072;BME280;74284;52.610;10.236;2024-02-14T01:57:04;101133.84;;;7.58;60.59
49072;BME280;74284;52.610;10.236;2024-02-14T01:59:30;101129.31;;;7.64;60.54
49072;BME280;74284;52.610;10.236;2024-02-14T02:01:55;101130.03;;;7.70;60.43
49072;BME280;74284;52.610;10.236;2024-02-14T02:04:20;101127.47;;;7.66;60.57
49072;BME280;74284;52.610;10.236;2024-02-14T02:06:46;101114.28;;;7.66;60.10
49072;BME280;74284;52.610;10.236;2024-02-14T02:09:12;101109.84;;;7.69;60.50
49072;BME280;74284;52.610;10.236;2024-02-14T02:11:52;101110.06;;;7.59;60.86
49072;BME280;74284;52.610;10.236;2024-02-14T02:14:21;101110.25;;;7.52;61.09
49072;BME280;74284;52.610;10.236;2024-02-14T02:16:46;101106.69;;;7.54;60.95
49072;BME280;74284;52.610;10.236;2024-02-14T02:19:12;101111.13;;;7.52;61.09
49072;BME280;74284;52.610;10.236;2024-02-14T02:21:37;101110.25;;;7.52;61.69
49072;BME280;74284;52.610;10.236;2024-02-14T02:24:03;101103.38;;;7.46;61.47
49072;BME280;74284;52.610;10.236;2024-02-14T02:26:28;101108.41;;;7.55;61.03
49072;BME280;74284;52.610;10.236;2024-02-14T02:28:53;101097.56;;;7.66;61.19
49072;BME280;74284;52.610;10.236;2024-02-14T02:31:19;101093.25;;;7.62;61.09
49072;BME280;74284;52.610;10.236;2024-02-14T02:33:45;101090.84;;;7.53;61.19
49072;BME280;74284;52.610;10.236;2024-02-14T02:36:10;101089.84;;;7.58;61.27
49072;BME280;74284;52.610;10.236;2024-02-14T02:38:36;101095.97;;;7.60;61.16
49072;BME280;74284;52.610;10.236;2024-02-14T02:41:02;101087.00;;;7.66;61.20
49072;BME280;74284;52.610;10.236;2024-02-14T02:43:28;101082.81;;;7.59;61.32
49072;BME280;74284;52.610;10.236;2024-02-14T02:45:54;101085.06;;;7.73;61.22
49072;BME280;74284;52.610;10.236;2024-02-14T02:48:19;101086.19;;;7.62;61.97
49072;BME280;74284;52.610;10.236;2024-02-14T02:50:51;101082.88;;;7.56;62.32
49072;BME280;74284;52.610;10.236;2024-02-14T02:53:18;101082.91;;;7.54;63.06
49072;BME280;74284;52.610;10.236;2024-02-14T02:55:44;101075.53;;;7.67;63.04
49072;BME280;74284;52.610;10.236;2024-02-14T02:58:09;101073.59;;;7.74;63.10
49072;BME280;74284;52.610;10.236;2024-02-14T03:00:35;101079.06;;;7.68;63.55
49072;BME280;74284;52.610;10.236;2024-02-14T03:03:00;101066.59;;;7.73;63.87
49072;BME280;74284;52.610;10.236;2024-02-14T03:05:27;101071.38;;;7.58;64.52
49072;BME280;74284;52.610;10.236;2024-02-14T03:07:54;101066.28;;;7.51;65.14
49072;BME280;74284;52.610;10.236;2024-02-14T03:10:22;101070.53;;;7.56;64.83
49072;BME280;74284;52.610;10.236;2024-02-14T03:12:48;101065.81;;;7.69;65.10
49072;BME280;74284;52.610;10.236;2024-02-14T03:15:14;101067.34;;;7.76;65.08
49072;BME280;74284;52.610;10.236;2024-02-14T03:17:39;101061.44;;;7.68;65.25
49072;BME280;74284;52.610;10.236;2024-02-14T03:20:05;101056.91;;;7.72;65.37
49072;BME280;74284;52.610;10.236;2024-02-14T03:22:35;101061.56;;;7.62;66.03
49072;BME280;74284;52.610;10.236;2024-02-14T03:25:01;101064.06;;;7.68;66.33
49072;BME280;74284;52.610;10.236;2024-02-14T03:27:26;101061.44;;;7.66;66.35
49072;BME280;74284;52.610;10.236;2024-02-14T03:29:52;101059.09;;;7.56;66.47
49072;BME280;74284;52.610;10.236;2024-02-14T03:32:17;101048.50;;;7.57;67.25
49072;BME280;74284;52.610;10.236;2024-02-14T03:34:42;101050.75;;;7.73;67.19
49072;BME280;74284;52.610;10.236;2024-02-14T03:37:08;101044.75;;;7.66;67.32
49072;BME280;74284;52.610;10.236;2024-02-14T03:39:33;101044.19;;;7.55;68.04
49072;BME280;74284;52.610;10.236;2024-02-14T03:41:59;101042.41;;;7.55;68.05
49072;BME280;74284;52.610;10.236;2024-02-14T03:44:27;101040.88;;;7.47;68.64
49072;BME280;74284;52.610;10.236;2024-02-14T03:46:53;101030.97;;;7.55;68.74
49072;BME280;74284;52.610;10.236;2024-02-14T03:49:18;101027.34;;;7.59;68.91
49072;BME280;74284;52.610;10.236;2024-02-14T03:51:45;101030.13;;;7.54;69.04
49072;BME280;74284;52.610;10.236;2024-02-14T03:54:10;101018.94;;;7.45;70.02
49072;BME280;74284;52.610;10.236;2024-02-14T03:56:36;101015.56;;;7.38;70.83
49072;BME280;74284;52.610;10.236;2024-02-14T03:59:02;101016.31;;;7.45;70.94
49072;BME280;74284;52.610;10.236;2024-02-14T04:01:32;101005.41;;;7.23;72.11
49072;BME280;74284;52.610;10.236;2024-02-14T04:03:59;101009.69;;;7.28;73.36
49072;BME280;74284;52.610;10.236;2024-02-14T04:06:24;101015.88;;;7.27;73.05
49072;BME280;74284;52.610;10.236;2024-02-14T04:08:51;101003.81;;;7.15;74.20
49072;BME280;74284;52.610;10.236;2024-02-14T04:11:17;101005.59;;;7.15;75.00
49072;BME280;74284;52.610;10.236;2024-02-14T04:13:42;101003.63;;;7.23;75.04
49072;BME280;74284;52.610;10.236;2024-02-14T04:16:07;101000.31;;;7.15;75.09
49072;BME280;74284;52.610;10.236;2024-02-14T04:18:33;100995.72;;;7.22;75.22
49072;BME280;74284;52.610;10.236;2024-02-14T04:20:58;100992.94;;;7.29;75.06
49072;BME280;74284;52.610;10.236;2024-02-14T04:23:24;100987.19;;;7.12;76.70
49072;BME280;74284;52.610;10.236;2024-02-14T04:25:50;100992.47;;;7.12;76.39
49072;BME280;74284;52.610;10.236;2024-02-14T04:28:15;100988.72;;;7.21;76.52
49072;BME280;74284;52.610;10.236;2024-02-14T04:30:41;100981.22;;;8.02;74.28
49072;BME280;74284;52.610;10.236;2024-02-14T04:33:06;100980.31;;;7.40;75.07
49072;BME280;74284;52.610;10.236;2024-02-14T04:35:33;100975.72;;;7.47;75.15
49072;BME280;74284;52.610;10.236;2024-02-14T04:37:59;100984.16;;;7.29;76.34
49072;BME280;74284;52.610;10.236;2024-02-14T04:40:24;100974.09;;;7.43;75.88
49072;BME280;74284;52.610;10.236;2024-02-14T04:42:49;100969.41;;;7.53;75.58
49072;BME280;74284;52.610;10.236;2024-02-14T04:45:15;100972.66;;;7.31;76.49
49072;BME280;74284;52.610;10.236;2024-02-14T04:47:40;100964.50;;;7.39;76.59
49072;BME280;74284;52.610;10.236;2024-02-14T04:50:06;100967.38;;;7.93;76.05
49072;BME280;74284;52.610;10.236;2024-02-14T04:52:32;100971.28;;;7.49;76.20
49072;BME280;74284;52.610;10.236;2024-02-14T04:54:57;100966.75;;;7.54;75.82
49072;BME280;74284;52.610;10.236;2024-02-14T04:57:23;100960.56;;;7.55;76.11
49072;BME280;74284;52.610;10.236;2024-02-14T04:59:48;100966.63;;;7.59;75.58
49072;BME280;74284;52.610;10.236;2024-02-14T05:02:13;100957.66;;;7.64;75.40
49072;BME280;74284;52.610;10.236;2024-02-14T05:04:39;100963.19;;;7.55;76.21
49072;BME280;74284;52.610;10.236;2024-02-14T05:07:05;100964.31;;;7.78;75.52
49072;BME280;74284;52.610;10.236;2024-02-14T05:09:30;100965.78;;;7.88;74.28
49072;BME280;74284;52.610;10.236;2024-02-14T05:11:56;100963.28;;;7.83;74.91
49072;BME280;74284;52.610;10.236;2024-02-14T05:14:21;100967.47;;;7.90;74.41
49072;BME280;74284;52.610;10.236;2024-02-14T05:16:47;100961.50;;;7.84;74.87
49072;BME280;74284;52.610;10.236;2024-02-14T05:19:12;100964.91;;;7.87;75.18
49072;BME280;74284;52.610;10.236;2024-02-14T05:21:38;100964.84;;;7.90;74.84
49072;BME280;74284;52.610;10.236;2024-02-14T05:24:04;100964.72;;;7.93;74.63
49072;BME280;74284;52.610;10.236;2024-02-14T05:26:29;100968.09;;;7.99;74.88
49072;BME280;74284;52.610;10.236;2024-02-14T05:28:55;100966.69;;;7.87;75.47
49072;BME280;74284;52.610;10.236;2024-02-14T05:31:20;100961.56;;;7.81;75.74
49072;BME280;74284;52.610;10.236;2024-02-14T05:33:45;100959.19;;;7.72;76.14
49072;BME280;74284;52.610;10.236;2024-02-14T05:36:11;100960.50;;;7.88;76.23
49072;BME280;74284;52.610;10.236;2024-02-14T05:38:36;100957.78;;;7.91;75.55
49072;BME280;74284;52.610;10.236;2024-02-14T05:41:01;100956.41;;;7.76;76.83
49072;BME280;74284;52.610;10.236;2024-02-14T05:43:27;100951.00;;;7.81;76.80
49072;BME280;74284;52.610;10.236;2024-02-14T05:45:52;100947.34;;;7.86;76.33
49072;BME280;74284;52.610;10.236;2024-02-14T05:48:19;100954.69;;;7.75;77.36
49072;BME280;74284;52.610;10.236;2024-02-14T05:50:44;100950.19;;;7.79;77.21
49072;BME280;74284;52.610;10.236;2024-02-14T05:53:10;100946.69;;;7.78;77.44
49072;BME280;74284;52.610;10.236;2024-02-14T05:55:37;100951.84;;;7.83;77.57
49072;BME280;74284;52.610;10.236;2024-02-14T05:58:02;100941.81;;;7.94;77.42
49072;BME280;74284;52.610;10.236;2024-02-14T06:00:28;100936.59;;;7.92;77.30
49072;BME280;74284;52.610;10.236;2024-02-14T06:02:53;100941.88;;;7.92;77.11
49072;BME280;74284;52.610;10.236;2024-02-14T06:05:18;100943.59;;;7.93;77.57
49072;BME280;74284;52.610;10.236;2024-02-14T06:07:44;100948.22;;;7.85;78.21
49072;BME280;74284;52.610;10.236;2024-02-14T06:10:10;100942.66;;;7.96;78.06
49072;BME280;74284;52.610;10.236;2024-02-14T06:12:36;100941.66;;;8.28;78.94
49072;BME280;74284;52.610;10.236;2024-02-14T06:15:02;100947.16;;;8.22;76.37
49072;BME280;74284;52.610;10.236;2024-02-14T06:17:27;100952.75;;;8.11;76.96
49072;BME280;74284;52.610;10.236;2024-02-14T06:19:53;100950.06;;;8.13;77.59
49072;BME280;74284;52.610;10.236;2024-02-14T06:22:18;100940.50;;;8.37;78.71
49072;BME280;74284;52.610;10.236;2024-02-14T06:24:44;100957.94;;;8.14;77.41
49072;BME280;74284;52.610;10.236;2024-02-14T06:27:09;100954.00;;;8.28;77.04
49072;BME280;74284;52.610;10.236;2024-02-14T06:29:35;100963.00;;;8.22;77.63
49072;BME280;74284;52.610;10.236;2024-02-14T06:32:00;100960.06;;;8.31;77.17
49072;BME280;74284;52.610;10.236;2024-02-14T06:34:25;100961.81;;;8.31;77.64
49072;BME280;74284;52.610;10.236;2024-02-14T06:36:53;100953.19;;;8.26;78.39
49072;BME280;74284;52.610;10.236;2024-02-14T06:39:18;100952.28;;;8.27;78.31
49072;BME280;74284;52.610;10.236;2024-02-14T06:41:45;100948.72;;;8.28;78.61
49072;BME280;74284;52.610;10.236;2024-02-14T06:44:12;100953.31;;;8.21;79.76
49072;BME280;74284;52.610;10.236;2024-02-14T06:46:37;100954.97;;;8.25;79.76
49072;BME280;74284;52.610;10.236;2024-02-14T06:49:03;100954.09;;;8.25;80.06
49072;BME280;74284;52.610;10.236;2024-02-14T06:51:28;100953.94;;;8.29;79.81
49072;BME280;74284;52.610;10.236;2024-02-14T06:53:55;100952.03;;;8.34;79.63
49072;BME280;74284;52.610;10.236;2024-02-14T06:56:21;100957.56;;;8.27;80.40
49072;BME280;74284;52.610;10.236;2024-02-14T06:58:46;100955.50;;;8.36;79.78
49072;BME280;74284;52.610;10.236;2024-02-14T07:01:11;100953.63;;;8.40;80.08
49072;BME280;74284;52.610;10.236;2024-02-14T07:03:38;100955.25;;;8.44;79.67
49072;BME280;74284;52.610;10.236;2024-02-14T07:06:06;100954.44;;;8.42;79.77
49072;BME280;74284;52.610;10.236;2024-02-14T07:08:31;100958.72;;;8.46;79.81
49072;BME280;74284;52.610;10.236;2024-02-14T07:10:56;100956.03;;;8.48;80.07
49072;BME280;74284;52.610;10.236;2024-02-14T07:13:21;100958.63;;;8.49;80.38
49072;BME280;74284;52.610;10.236;2024-02-14T07:15:47;100954.16;;;8.51;80.69
49072;BME280;74284;52.610;10.236;2024-02-14T07:18:12;100953.38;;;8.48;80.82
49072;BME280;74284;52.610;10.236;2024-02-14T07:20:37;100957.59;;;8.53;80.43
49072;BME280;74284;52.610;10.236;2024-02-14T07:23:03;100955.94;;;8.51;80.79
49072;BME280;74284;52.610;10.236;2024-02-14T07:25:29;100967.13;;;8.59;80.64
49072;BME280;74284;52.610;10.236;2024-02-14T07:27:54;100959.06;;;8.63;80.87
49072;BME280;74284;52.610;10.236;2024-02-14T07:30:20;100960.25;;;8.53;81.38
49072;BME280;74284;52.610;10.236;2024-02-14T07:32:45;100966.00;;;8.66;80.98
49072;BME280;74284;52.610;10.236;2024-02-14T07:35:11;100955.44;;;8.66;81.68
49072;BME280;74284;52.610;10.236;2024-02-14T07:37:38;100961.56;;;8.66;81.25
49072;BME280;74284;52.610;10.236;2024-02-14T07:40:04;100968.94;;;8.57;82.33
49072;BME280;74284;52.610;10.236;2024-02-14T07:42:30;100961.94;;;8.56;82.76
49072;BME280;74284;52.610;10.236;2024-02-14T07:44:56;100957.91;;;8.72;83.75
49072;BME280;74284;52.610;10.236;2024-02-14T07:47:22;100959.63;;;8.73;82.06
49072;BME280;74284;52.610;10.236;2024-02-14T07:49:47;100963.28;;;8.69;82.04
49072;BME280;74284;52.610;10.236;2024-02-14T07:52:12;100962.28;;;8.72;82.12
49072;BME280;74284;52.610;10.236;2024-02-14T07:54:37;100961.56;;;8.66;83.17
49072;BME280;74284;52.610;10.236;2024-02-14T07:57:03;100960.72;;;8.66;83.78
49072;BME280;74284;52.610;10.236;2024-02-14T07:59:28;100962.28;;;8.72;82.96
49072;BME280;74284;52.610;10.236;2024-02-14T08:01:54;100959.22;;;8.85;82.66
49072;BME280;74284;52.610;10.236;2024-02-14T08:04:19;100954.34;;;8.72;83.33
49072;BME280;74284;52.610;10.236;2024-02-14T08:06:46;100959.81;;;9.20;81.46
49072;BME280;74284;52.610;10.236;2024-02-14T08:09:12;100960.63;;;8.69;84.19
49072;BME280;74284;52.610;10.236;2024-02-14T08:11:37;100968.06;;;8.86;83.28
49072;BME280;74284;52.610;10.236;2024-02-14T08:14:03;100961.94;;;8.84;84.61
49072;BME280;74284;52.610;10.236;2024-02-14T08:16:28;100952.19;;;8.84;84.27
49072;BME280;74284;52.610;10.236;2024-02-14T08:18:53;100956.16;;;8.98;83.62
49072;BME280;74284;52.610;10.236;2024-02-14T08:21:25;100965.13;;;8.93;84.45
49072;BME280;74284;52.610;10.236;2024-02-14T08:23:52;100961.59;;;8.95;84.53
49072;BME280;74284;52.610;10.236;2024-02-14T08:26:17;100962.00;;;8.82;86.54
49072;BME280;74284;52.610;10.236;2024-02-14T08:28:42;100965.53;;;8.81;85.96
49072;BME280;74284;52.610;10.236;2024-02-14T08:31:11;100963.72;;;8.83;87.17
49072;BME280;74284;52.610;10.236;2024-02-14T08:33:39;100970.97;;;9.03;85.41
49072;BME280;74284;52.610;10.236;2024-02-14T08:36:06;100960.38;;;9.03;85.79
49072;BME280;74284;52.610;10.236;2024-02-14T08:38:32;100964.19;;;9.21;84.70
49072;BME280;74284;52.610;10.236;2024-02-14T08:40:57;100972.28;;;9.16;84.96
49072;BME280;74284;52.610;10.236;2024-02-14T08:43:23;100962.13;;;9.29;84.43
49072;BME280;74284;52.610;10.236;2024-02-14T08:45:51;100963.59;;;9.38;83.99
49072;BME280;74284;52.610;10.236;2024-02-14T08:48:16;100963.44;;;9.42;85.62
49072;BME280;74284;52.610;10.236;2024-02-14T08:50:42;100966.84;;;9.21;84.96
49072;BME280;74284;52.610;10.236;2024-02-14T08:53:07;100957.09;;;9.22;85.44
49072;BME280;74284;52.610;10.236;2024-02-14T08:55:32;100970.78;;;9.34;85.28
49072;BME280;74284;52.610;10.236;2024-02-14T08:57:58;100967.38;;;9.31;85.51
49072;BME280;74284;52.610;10.236;2024-02-14T09:00:23;100974.63;;;9.26;86.45
49072;BME280;74284;52.610;10.236;2024-02-14T09:02:49;100966.19;;;9.39;86.37
49072;BME280;74284;52.610;10.236;2024-02-14T09:05:14;100962.75;;;9.37;85.53
49072;BME280;74284;52.610;10.236;2024-02-14T09:07:39;100967.72;;;9.47;85.20
49072;BME280;74284;52.610;10.236;2024-02-14T09:10:07;100972.56;;;9.34;86.44
49072;BME280;74284;52.610;10.236;2024-02-14T09:12:32;100971.91;;;9.52;85.46
49072;BME280;74284;52.610;10.236;2024-02-14T09:14:58;100974.03;;;9.67;86.55
49072;BME280;74284;52.610;10.236;2024-02-14T09:17:24;100977.03;;;9.57;85.14
49072;BME280;74284;52.610;10.236;2024-02-14T09:19:49;100978.56;;;9.64;85.36
49072;BME280;74284;52.610;10.236;2024-02-14T09:22:14;100974.38;;;9.58;85.28
49072;BME280;74284;52.610;10.236;2024-02-14T09:24:46;100975.09;;;9.62;85.52
49072;BME280;74284;52.610;10.236;2024-02-14T09:27:11;100981.25;;;9.62;85.47
49072;BME280;74284;52.610;10.236;2024-02-14T09:29:37;100980.06;;;9.71;85.49
49072;BME280;74284;52.610;10.236;2024-02-14T09:32:03;100992.25;;;9.77;84.72
49072;BME280;74284;52.610;10.236;2024-02-14T09:34:29;100982.91;;;9.90;84.23
49072;BME280;74284;52.610;10.236;2024-02-14T09:36:54;100978.91;;;9.78;85.39
49072;BME280;74284;52.610;10.236;2024-02-14T09:39:21;100984.28;;;9.77;86.11
49072;BME280;74284;52.610;10.236;2024-02-14T09:41:51;100975.41;;;9.78;86.26
49072;BME280;74284;52.610;10.236;2024-02-14T09:44:20;100983.72;;;9.92;85.56
49072;BME280;74284;52.610;10.236;2024-02-14T09:46:47;100989.13;;;9.89;85.60
49072;BME280;74284;52.610;10.236;2024-02-14T09:49:14;100981.81;;;9.95;85.71
49072;BME280;74284;52.610;10.236;2024-02-14T09:51:42;100984.69;;;9.89;85.99
49072;BME280;74284;52.610;10.236;2024-02-14T09:54:10;100983.25;;;10.04;85.76
49072;BME280;74284;52.610;10.236;2024-02-14T09:56:36;100993.91;;;10.03;85.76
49072;BME280;74284;52.610;10.236;2024-02-14T09:59:01;100984.53;;;10.17;87.01
49072;BME280;74284;52.610;10.236;2024-02-14T10:01:28;100987.56;;;10.07;86.23
49072;BME280;74284;52.610;10.236;2024-02-14T10:03:53;100992.34;;;10.20;87.09
49072;BME280;74284;52.610;10.236;2024-02-14T10:06:20;100997.41;;;10.03;86.62
49072;BME280;74284;52.610;10.236;2024-02-14T10:08:49;101006.34;;;10.01;87.90
49072;BME280;74284;52.610;10.236;2024-02-14T10:11:15;101005.94;;;10.11;87.00
49072;BME280;74284;52.610;10.236;2024-02-14T10:13:41;101005.34;;;10.28;88.05
49072;BME280;74284;52.610;10.236;2024-02-14T10:16:06;101007.63;;;10.14;87.45
49072;BME280;74284;52.610;10.236;2024-02-14T10:18:33;101008.31;;;10.19;87.24
49072;BME280;74284;52.610;10.236;2024-02-14T10:20:59;101009.03;;;10.24;87.45
49072;BME280;74284;52.610;10.236;2024-02-14T10:23:24;101018.00;;;10.20;87.88
49072;BME280;74284;52.610;10.236;2024-02-14T10:25:57;101018.28;;;10.12;89.41
49072;BME280;74284;52.610;10.236;2024-02-14T10:28:22;101019.72;;;10.21;88.49
49072;BME280;74284;52.610;10.236;2024-02-14T10:30:48;101023.94;;;10.50;88.45
49072;BME280;74284;52.610;10.236;2024-02-14T10:33:15;101019.97;;;10.38;87.19
49072;BME280;74284;52.610;10.236;2024-02-14T10:35:41;101027.63;;;10.46;86.90
49072;BME280;74284;52.610;10.236;2024-02-14T10:38:07;101034.28;;;10.34;87.81
49072;BME280;74284;52.610;10.236;2024-02-14T10:40:35;101035.03;;;10.38;87.71
49072;BME280;74284;52.610;10.236;2024-02-14T10:43:01;101034.75;;;10.45;88.27
49072;BME280;74284;52.610;10.236;2024-02-14T10:45:27;101037.38;;;10.45;88.35
49072;BME280;74284;52.610;10.236;2024-02-14T10:47:53;101035.91;;;10.60;88.82
49072;BME280;74284;52.610;10.236;2024-02-14T10:50:21;101043.63;;;10.44;89.12
49072;BME280;74284;52.610;10.236;2024-02-14T10:52:48;101040.97;;;10.66;88.39
49072;BME280;74284;52.610;10.236;2024-02-14T10:55:16;101042.41;;;10.75;87.34
49072;BME280;74284;52.610;10.236;2024-02-14T10:57:42;101047.78;;;10.74;87.22
49072;BME280;74284;52.610;10.236;2024-02-14T11:00:09;101051.84;;;10.82;87.44
49072;BME280;74284;52.610;10.236;2024-02-14T11:02:39;101051.31;;;10.96;86.83
49072;BME280;74284;52.610;10.236;2024-02-14T11:05:05;101049.31;;;11.01;86.41
49072;BME280;74284;52.610;10.236;2024-02-14T11:07:32;101051.38;;;10.94;87.62
49072;BME280;74284;52.610;10.236;2024-02-14T11:10:01;101056.44;;;11.21;87.69
49072;BME280;74284;52.610;10.236;2024-02-14T11:12:33;101056.84;;;11.12;86.54
49072;BME280;74284;52.610;10.236;2024-02-14T11:14:59;101052.75;;;11.03;87.18
49072;BME280;74284;52.610;10.236;2024-02-14T11:17:26;101055.03;;;11.12;86.88
49072;BME280;74284;52.610;10.236;2024-02-14T11:19:52;101057.28;;;11.01;88.17
49072;BME280;74284;52.610;10.236;2024-02-14T11:22:18;101052.34;;;11.34;87.91
49072;BME280;74284;52.610;10.236;2024-02-14T11:24:48;101054.81;;;11.18;87.09
49072;BME280;74284;52.610;10.236;2024-02-14T11:27:14;101067.91;;;11.23;86.88
49072;BME280;74284;52.610;10.236;2024-02-14T11:29:40;101060.91;;;11.20;87.20
49072;BME280;74284;52.610;10.236;2024-02-14T11:32:06;101064.50;;;11.19;87.34
49072;BME280;74284;52.610;10.236;2024-02-14T11:34:34;101064.19;;;11.27;87.06
49072;BME280;74284;52.610;10.236;2024-02-14T11:37:00;101060.41;;;11.55;87.63
49072;BME280;74284;52.610;10.236;2024-02-14T11:39:25;101068.28;;;11.34;86.60
49072;BME280;74284;52.610;10.236;2024-02-14T11:41:51;101072.00;;;11.30;87.03
49072;BME280;74284;52.610;10.236;2024-02-14T11:44:19;101069.16;;;11.35;87.46
49072;BME280;74284;52.610;10.236;2024-02-14T11:46:47;101070.59;;;11.21;87.81
49072;BME280;74284;52.610;10.236;2024-02-14T11:49:12;101071.22;;;11.50;88.43
49072;BME280;74284;52.610;10.236;2024-02-14T11:51:38;101073.94;;;11.27;88.60
49072;BME280;74284;52.610;10.236;2024-02-14T11:54:04;101066.84;;;11.47;88.98
49072;BME280;74284;52.610;10.236;2024-02-14T11:56:31;101070.75;;;11.39;87.27
49072;BME280;74284;52.610;10.236;2024-02-14T11:58:59;101075.16;;;11.40;88.02
49072;BME280;74284;52.610;10.236;2024-02-14T12:01:29;101070.09;;;11.34;88.95
49072;BME280;74284;52.610;10.236;2024-02-14T12:03:56;101075.22;;;11.38;88.66
49072;BME280;74284;52.610;10.236;2024-02-14T12:06:22;101078.22;;;11.31;89.91
49072;BME280;74284;52.610;10.236;2024-02-14T12:08:47;101068.59;;;11.49;90.27
49072;BME280;74284;52.610;10.236;2024-02-14T12:11:12;101067.88;;;11.45;88.83
49072;BME280;74284;52.610;10.236;2024-02-14T12:13:38;101071.41;;;11.66;88.77
49072;BME280;74284;52.610;10.236;2024-02-14T12:16:08;101072.28;;;11.66;87.55
49072;BME280;74284;52.610;10.236;2024-02-14T12:18:33;101073.13;;;11.67;89.07
49072;BME280;74284;52.610;10.236;2024-02-14T12:21:06;101078.09;;;11.76;87.59
49072;BME280;74284;52.610;10.236;2024-02-14T12:23:34;101083.19;;;11.60;87.88
49072;BME280;74284;52.610;10.236;2024-02-14T12:26:04;101087.03;;;11.74;87.48
49072;BME280;74284;52.610;10.236;2024-02-14T12:28:30;101078.09;;;11.76;87.33
49072;BME280;74284;52.610;10.236;2024-02-14T12:30:57;101086.63;;;11.83;87.23
49072;BME280;74284;52.610;10.236;2024-02-14T12:33:27;101080.00;;;11.73;88.36
49072;BME280;74284;52.610;10.236;2024-02-14T12:35:55;101089.56;;;11.77;88.36
49072;BME280;74284;52.610;10.236;2024-02-14T12:38:22;101091.22;;;11.79;88.43
49072;BME280;74284;52.610;10.236;2024-02-14T12:40:50;101095.88;;;11.74;89.26